Time;durP1;ratioP1;P1;durP2;ratioP2;P2;SDS_P1;SDS_P2;PMS_P1;PMS_P2;Temp;Humidity;BMP_temperature;BMP_pressure;BME280_temperature;BME280_humidity;BME280_pressure;Samples;Min_cycle;Max_cycle;Signal;HPM_P1;HPM_P2
2021/09/27 18:51:11;;;;;;;5.28;2.47;;;;;;;10.89;70.74;100195.17;1665030;79;21616;-70
2021/09/27 18:53:43;;;;;;;4.92;2.55;;;;;;;10.88;70.85;100203.94;1621522;82;21038;-74
2021/09/27 18:56:06;;;;;;;5.78;2.58;;;;;;;10.91;71.16;100205.58;1651115;84;22249;-70
2021/09/27 18:58:33;;;;;;;5.28;2.50;;;;;;;10.90;71.10;100215.19;1666455;83;21162;-70
2021/09/27 19:01:00;;;;;;;3.15;2.40;;;;;;;10.92;71.57;100202.04;1637900;84;21983;-69
2021/09/27 19:03:29;;;;;;;5.20;2.50;;;;;;;10.91;71.44;100211.64;1651447;83;21127;-69
2021/09/27 19:05:55;;;;;;;3.70;2.50;;;;;;;10.86;71.55;100213.59;1645660;84;21546;-69
2021/09/27 19:09:24;;;;;;;5.60;2.77;;;;;;;10.88;72.01;100219.61;1864942;75;21968;-68
2021/09/27 19:11:51;;;;;;;4.20;2.57;;;;;;;10.83;72.11;100221.55;1822960;76;21424;-68
2021/09/27 19:14:18;;;;;;;9.77;2.93;;;;;;;10.82;71.97;100222.48;1817519;77;22004;-68
2021/09/27 19:16:44;;;;;;;6.10;3.13;;;;;;;10.79;72.38;100221.76;1831511;75;20912;-69
2021/09/27 19:19:11;;;;;;;4.08;2.92;;;;;;;10.77;72.40;100221.80;1825835;76;21906;-68
2021/09/27 19:21:38;;;;;;;4.30;2.80;;;;;;;10.75;72.65;100223.63;1829281;76;21746;-68
2021/09/27 19:24:05;;;;;;;4.33;2.87;;;;;;;10.72;72.54;100221.13;1827708;76;21014;-68
2021/09/27 19:26:40;;;;;;;4.45;2.42;;;;;;;10.68;72.63;100216.95;1824640;76;22128;-68
2021/09/27 19:29:10;;;;;;;3.62;2.40;;;;;;;10.70;72.76;100222.98;1829970;76;21056;-68
2021/09/27 19:31:38;;;;;;;3.75;2.40;;;;;;;10.66;72.79;100227.45;1823050;76;21311;-68
2021/09/27 19:34:08;;;;;;;7.70;2.60;;;;;;;10.64;72.94;100228.42;1827818;76;22008;-70
2021/09/27 19:36:35;;;;;;;4.12;2.58;;;;;;;10.63;73.54;100225.42;1800357;76;21377;-68
2021/09/27 19:39:04;;;;;;;3.62;2.45;;;;;;;10.66;73.41;100226.61;1827437;76;21234;-70
2021/09/27 19:41:33;;;;;;;3.92;2.58;;;;;;;10.67;73.38;100225.69;1753957;79;21439;-70
2021/09/27 19:44:02;;;;;;;3.67;2.20;;;;;;;10.66;73.53;100217.47;1806973;77;21390;-70
2021/09/27 19:46:28;;;;;;;3.52;2.47;;;;;;;10.66;73.43;100224.00;1821453;76;22322;-61
2021/09/27 19:48:55;;;;;;;3.52;2.52;;;;;;;10.64;73.37;100236.25;1823757;76;21450;-61
2021/09/27 19:51:22;;;;;;;6.65;3.22;;;;;;;10.60;73.48;100234.69;1823912;77;21060;-61
2021/09/27 19:53:49;;;;;;;3.53;1.90;;;;;;;10.57;73.45;100235.66;1825635;76;21441;-61
2021/09/27 19:56:15;;;;;;;5.55;2.87;;;;;;;10.51;73.46;100247.19;1816747;76;22044;-61
2021/09/27 19:58:42;;;;;;;6.53;3.15;;;;;;;10.45;73.57;100246.12;1819165;76;21509;-61
2021/09/27 20:01:08;;;;;;;3.53;2.83;;;;;;;10.42;73.87;100246.25;1809469;76;21450;-61
2021/09/27 20:03:35;;;;;;;4.78;2.98;;;;;;;10.39;73.80;100247.67;1819257;76;21140;-60
2021/09/27 20:06:08;;;;;;;3.55;2.08;;;;;;;10.33;73.76;100245.73;1821240;76;21552;-60
2021/09/27 20:08:31;;;;;;;4.30;2.47;;;;;;;10.28;73.90;100239.40;1815388;76;22353;-60
2021/09/27 20:10:59;;;;;;;5.12;2.85;;;;;;;10.25;74.00;100244.67;1815214;76;21059;-61
2021/09/27 20:13:26;;;;;;;3.35;2.52;;;;;;;10.19;74.07;100244.45;1821693;76;21664;-61
2021/09/27 20:15:54;;;;;;;6.72;3.42;;;;;;;10.16;74.26;100239.80;1833176;77;21910;-61
2021/09/27 20:18:21;;;;;;;3.62;2.55;;;;;;;10.15;74.49;100240.72;1812560;76;21074;-61
2021/09/27 20:20:50;;;;;;;4.62;2.67;;;;;;;10.13;74.44;100245.14;1822402;76;22003;-61
2021/09/27 20:23:17;;;;;;;4.17;2.87;;;;;;;10.11;74.44;100241.73;1819515;76;21481;-60
2021/09/27 20:25:44;;;;;;;4.40;2.33;;;;;;;10.09;74.56;100242.64;1800075;77;21159;-61
2021/09/27 20:28:12;;;;;;;;;;;;;;;10.08;74.66;100240.08;1795762;76;21411;-61
2021/09/27 20:30:40;;;;;;;4.37;2.80;;;;;;;10.09;74.80;100246.56;1812075;77;20219;-60
2021/09/27 20:33:07;;;;;;;5.00;3.00;;;;;;;10.08;74.73;100246.17;1829001;76;21470;-60
2021/09/27 20:35:36;;;;;;;4.90;2.70;;;;;;;10.06;74.71;100242.77;1828136;77;21556;-61
2021/09/27 20:38:07;;;;;;;6.60;2.83;;;;;;;10.05;74.74;100241.08;1836984;77;21022;-61
2021/09/27 20:40:36;;;;;;;4.87;2.90;;;;;;;10.05;74.87;100240.20;1835224;76;21093;-62
2021/09/27 20:43:03;;;;;;;5.55;3.05;;;;;;;10.05;74.88;100238.47;1839888;77;20932;-61
2021/09/27 20:45:30;;;;;;;5.72;2.77;;;;;;;10.03;75.02;100237.66;1827525;77;20931;-61
2021/09/27 20:47:57;;;;;;;6.58;2.55;;;;;;;10.03;75.02;100242.88;1820983;76;21723;-62
2021/09/27 20:50:28;;;;;;;5.70;2.60;;;;;;;10.01;75.06;100244.69;1826322;77;21063;-61
2021/09/27 20:52:55;;;;;;;4.53;2.47;;;;;;;9.98;75.14;100247.41;1818661;76;21131;-61
2021/09/27 20:55:22;;;;;;;3.70;2.77;;;;;;;9.96;75.33;100246.61;1811732;77;21441;-62
2021/09/27 20:57:50;;;;;;;3.27;2.70;;;;;;;9.92;75.27;100248.09;1818436;76;21524;-61
2021/09/27 21:00:40;;;;;;;6.92;2.42;;;;;;;9.89;75.23;100243.84;1815475;76;22403;-61
2021/09/27 21:03:07;;;;;;;5.30;2.52;;;;;;;9.85;75.31;100241.77;1807108;77;21057;-61
2021/09/27 21:05:34;;;;;;;;;;;;;;;9.80;75.40;100242.41;1799745;77;21553;-61
2021/09/27 21:08:03;;;;;;;6.08;2.72;;;;;;;9.79;75.76;100247.67;1825968;77;20102;-61
2021/09/27 21:10:34;;;;;;;4.08;2.58;;;;;;;9.78;75.56;100239.46;1827973;77;21483;-61
2021/09/27 21:13:01;;;;;;;4.28;2.92;;;;;;;9.80;75.76;100246.75;1836975;76;20900;-61
2021/09/27 21:15:28;;;;;;;4.97;2.90;;;;;;;9.77;75.76;100245.56;1833279;76;20918;-62
2021/09/27 21:17:56;;;;;;;10.32;2.50;;;;;;;9.76;75.92;100246.48;1829581;76;21433;-62
2021/09/27 21:20:25;;;;;;;4.37;2.65;;;;;;;9.74;75.91;100250.43;1810978;77;20926;-62
2021/09/27 21:22:54;;;;;;;3.67;2.42;;;;;;;9.70;75.95;100252.77;1812691;77;22295;-62
2021/09/27 21:25:21;;;;;;;6.37;3.58;;;;;;;9.67;75.99;100257.23;1814477;77;21075;-62
2021/09/27 21:27:48;;;;;;;5.43;2.70;;;;;;;9.62;76.34;100250.87;1822468;77;21072;-61
2021/09/27 21:30:18;;;;;;;3.65;2.50;;;;;;;9.58;76.37;100246.23;1830802;77;21478;-61
2021/09/27 21:32:45;;;;;;;5.47;3.50;;;;;;;9.60;76.58;100244.85;1818069;76;21223;-61
2021/09/27 21:35:13;;;;;;;6.75;2.80;;;;;;;9.58;76.60;100251.44;1817894;76;21239;-61
2021/09/27 21:37:41;;;;;;;3.25;2.30;;;;;;;9.57;76.67;100243.66;1820907;77;21532;-61
2021/09/27 21:40:11;;;;;;;4.10;2.83;;;;;;;9.55;76.77;100252.86;1815958;77;21148;-61
2021/09/27 21:42:38;;;;;;;5.42;2.60;;;;;;;9.53;76.71;100250.74;1817227;77;22248;-61
2021/09/27 21:45:07;;;;;;;4.83;2.30;;;;;;;9.51;76.72;100256.91;1737895;79;21440;-61
2021/09/27 21:47:34;;;;;;;4.97;2.92;;;;;;;9.44;76.87;100248.46;1815503;76;21129;-61
2021/09/27 21:50:01;;;;;;;4.97;3.13;;;;;;;9.42;77.03;100250.26;1816316;76;22026;-61
2021/09/27 21:52:27;;;;;;;6.25;2.95;;;;;;;9.39;77.00;100252.97;1771470;77;21071;-61
2021/09/27 21:54:54;;;;;;;4.70;3.22;;;;;;;9.38;77.14;100255.16;1809025;76;21157;-62
2021/09/27 21:57:21;;;;;;;6.03;3.40;;;;;;;9.36;77.30;100250.47;1804766;77;21104;-61
2021/09/27 21:59:47;;;;;;;9.90;5.57;;;;;;;9.34;77.26;100256.18;1811534;77;21561;-61
2021/09/27 22:02:14;;;;;;;15.43;7.47;;;;;;;9.29;77.43;100255.02;1810603;77;21736;-61
2021/09/27 22:04:51;;;;;;;27.07;7.90;;;;;;;9.26;77.29;100256.89;1820314;76;21600;-61
2021/09/27 22:07:18;;;;;;;20.32;9.03;;;;;;;9.22;77.39;100248.78;1794869;77;22362;-61
2021/09/27 22:09:47;;;;;;;22.00;8.85;;;;;;;9.16;77.47;100251.98;1814687;76;21496;-61
2021/09/27 22:12:18;;;;;;;27.10;9.90;;;;;;;9.14;77.69;100251.17;1807644;77;20946;-61
2021/09/27 22:14:46;;;;;;;33.42;10.23;;;;;;;9.14;77.89;100251.17;1795486;77;20931;-61
2021/09/27 22:17:13;;;;;;;23.57;8.53;;;;;;;9.14;77.87;100256.39;1787504;77;20930;-61
2021/09/27 22:19:40;;;;;;;18.92;7.83;;;;;;;9.11;77.80;100253.89;1805205;77;21460;-61
2021/09/27 22:22:07;;;;;;;28.07;8.53;;;;;;;9.09;77.86;100254.84;1826037;77;21280;-61
2021/09/27 22:24:35;;;;;;;20.00;8.30;;;;;;;9.07;78.06;100258.78;1811628;77;20988;-61
2021/09/27 22:27:05;;;;;;;32.50;8.98;;;;;;;9.04;78.14;100244.55;1811043;77;20891;-61
2021/09/27 22:29:32;;;;;;;25.72;8.30;;;;;;;9.01;78.19;100241.20;1817416;76;21296;-61
2021/09/27 22:32:01;;;;;;;20.90;7.73;;;;;;;8.97;78.24;100243.07;1802914;76;21526;-61
2021/09/27 22:34:28;;;;;;;18.17;6.25;;;;;;;8.95;78.37;100241.80;1815977;77;21092;-61
2021/09/27 22:36:55;;;;;;;20.08;8.08;;;;;;;8.93;78.45;100249.26;1815619;76;21342;-61
2021/09/27 22:39:21;;;;;;;22.67;8.45;;;;;;;8.89;78.45;100250.27;1806928;77;21905;-61
2021/09/27 22:41:49;;;;;;;39.70;10.40;;;;;;;8.86;78.47;100252.98;1808841;77;21940;-61
2021/09/27 22:44:15;;;;;;;31.73;9.90;;;;;;;8.83;78.55;100245.27;1804335;76;21154;-62
2021/09/27 22:46:42;;;;;;;29.02;8.98;;;;;;;8.78;78.62;100244.55;1813619;77;21172;-61
2021/09/27 22:49:09;;;;;;;26.12;9.23;;;;;;;8.76;78.55;100243.74;1805281;76;21308;-62
2021/09/27 22:51:36;;;;;;;25.53;8.60;;;;;;;8.72;78.70;100246.45;1810814;76;21070;-61
2021/09/27 22:54:02;;;;;;;25.83;9.13;;;;;;;8.69;78.78;100249.14;1796401;77;22332;-61
2021/09/27 22:56:29;;;;;;;18.53;7.97;;;;;;;8.66;78.65;100251.84;1821366;77;21533;-61
2021/09/27 22:58:56;;;;;;;19.60;8.40;;;;;;;8.64;78.80;100252.33;1811342;77;21373;-61
2021/09/27 23:01:23;;;;;;;19.92;7.55;;;;;;;8.61;78.81;100255.03;1814298;77;21140;-61
2021/09/27 23:03:50;;;;;;;20.45;7.47;;;;;;;8.58;78.92;100245.17;1810597;77;21307;-61
2021/09/27 23:06:17;;;;;;;22.07;6.62;;;;;;;8.53;78.95;100242.70;1824737;77;21512;-61
2021/09/27 23:08:44;;;;;;;17.10;6.97;;;;;;;8.53;79.32;100244.00;1824044;76;21336;-61
2021/09/27 23:11:11;;;;;;;19.77;6.47;;;;;;;8.53;79.31;100246.61;1822071;77;21291;-61
2021/09/27 23:13:38;;;;;;;11.85;5.12;;;;;;;8.50;79.21;100249.30;1831112;77;20975;-61
2021/09/27 23:16:05;;;;;;;23.70;8.38;;;;;;;8.48;79.42;100257.14;1799962;77;21513;-61
2021/09/27 23:18:39;;;;;;;18.65;7.03;;;;;;;8.46;79.47;100256.81;1822423;77;21082;-61
2021/09/27 23:21:01;;;;;;;19.57;7.25;;;;;;;8.46;79.60;100254.22;1822213;76;21670;-61
2021/09/27 23:23:28;;;;;;;22.67;7.97;;;;;;;8.44;79.62;100250.80;1817367;77;22073;-62
2021/09/27 23:25:58;;;;;;;12.50;6.10;;;;;;;8.44;79.62;100249.50;1818351;77;21110;-62
2021/09/27 23:28:31;;;;;;;13.53;6.78;;;;;;;8.40;79.75;100251.77;1818607;77;21598;-61
2021/09/27 23:30:55;;;;;;;16.30;6.17;;;;;;;8.40;79.89;100247.45;1829714;76;21006;-61
2021/09/27 23:33:23;;;;;;;15.15;6.60;;;;;;;8.38;79.84;100250.95;1808146;77;20875;-61
2021/09/27 23:35:50;;;;;;;17.17;6.83;;;;;;;8.35;79.80;100248.45;1838403;77;20967;-61
2021/09/27 23:38:18;;;;;;;10.35;5.55;;;;;;;8.34;79.96;100248.02;1831914;77;21026;-61
2021/09/27 23:40:46;;;;;;;18.45;7.08;;;;;;;8.34;80.03;100257.13;1831937;77;21512;-61
2021/09/27 23:43:15;;;;;;;16.73;6.83;;;;;;;8.35;80.11;100252.35;1824447;77;20970;-61
2021/09/27 23:45:42;;;;;;;13.72;5.78;;;;;;;8.34;80.04;100251.92;1826128;76;21430;-61
2021/09/27 23:48:09;;;;;;;15.78;6.85;;;;;;;8.30;80.14;100253.32;1821280;76;21207;-61
2021/09/27 23:50:36;;;;;;;18.73;7.03;;;;;;;8.29;80.09;100263.79;1816003;77;21830;-61
2021/09/27 23:53:03;;;;;;;13.40;6.17;;;;;;;8.27;80.25;100262.52;1821720;76;21724;-61
2021/09/27 23:55:33;;;;;;;10.95;5.75;;;;;;;8.21;80.28;100257.50;1824938;76;21029;-61
2021/09/27 23:58:02;;;;;;;6.25;4.25;;;;;;;8.19;80.39;100263.64;1832930;77;22026;-61
